sensor_id;sensor_type;location;lat;lon;timestamp;P1;durP1;ratioP1;P2;durP2;ratioP2
64686;SDS011;51113;53.646;-113.674;2022-11-20T00:01:38;10.35;;;2.03;;
64686;SDS011;51113;53.646;-113.674;2022-11-20T00:04:08;5.10;;;1.85;;
64686;SDS011;51113;53.646;-113.674;2022-11-20T00:06:39;3.65;;;2.10;;
64686;SDS011;51113;53.646;-113.674;2022-11-20T00:09:09;6.53;;;2.00;;
64686;SDS011;51113;53.646;-113.674;2022-11-20T00:11:38;4.20;;;2.10;;
64686;SDS011;51113;53.646;-113.674;2022-11-20T00:14:08;5.85;;;2.22;;
64686;SDS011;51113;53.646;-113.674;2022-11-20T00:16:39;6.95;;;2.10;;
64686;SDS011;51113;53.646;-113.674;2022-11-20T00:19:08;4.75;;;2.00;;
64686;SDS011;51113;53.646;-113.674;2022-11-20T00:21:37;5.80;;;2.00;;
64686;SDS011;51113;53.646;-113.674;2022-11-20T00:24:07;5.65;;;2.13;;
64686;SDS011;51113;53.646;-113.674;2022-11-20T00:26:38;5.22;;;2.08;;
64686;SDS011;51113;53.646;-113.674;2022-11-20T00:29:08;7.35;;;1.92;;
64686;SDS011;51113;53.646;-113.674;2022-11-20T00:31:38;2.90;;;1.77;;
64686;SDS011;51113;53.646;-113.674;2022-11-20T00:34:08;3.45;;;1.85;;
64686;SDS011;51113;53.646;-113.674;2022-11-20T00:36:38;4.30;;;2.10;;
64686;SDS011;51113;53.646;-113.674;2022-11-20T00:39:06;4.57;;;2.00;;
64686;SDS011;51113;53.646;-113.674;2022-11-20T00:41:35;2.95;;;1.50;;
64686;SDS011;51113;53.646;-113.674;2022-11-20T00:44:04;4.47;;;1.92;;
64686;SDS011;51113;53.646;-113.674;2022-11-20T00:46:34;3.15;;;1.80;;
64686;SDS011;51113;53.646;-113.674;2022-11-20T00:49:03;6.28;;;2.08;;
64686;SDS011;51113;53.646;-113.674;2022-11-20T00:51:32;3.97;;;2.05;;
64686;SDS011;51113;53.646;-113.674;2022-11-20T00:54:01;3.15;;;1.70;;
64686;SDS011;51113;53.646;-113.674;2022-11-20T00:56:30;6.30;;;2.00;;
64686;SDS011;51113;53.646;-113.674;2022-11-20T00:58:59;6.35;;;2.45;;
64686;SDS011;51113;53.646;-113.674;2022-11-20T01:01:29;5.05;;;1.90;;
64686;SDS011;51113;53.646;-113.674;2022-11-20T01:03:59;8.70;;;2.13;;
64686;SDS011;51113;53.646;-113.674;2022-11-20T01:06:29;3.60;;;2.10;;
64686;SDS011;51113;53.646;-113.674;2022-11-20T01:09:10;3.30;;;1.90;;
64686;SDS011;51113;53.646;-113.674;2022-11-20T01:11:42;6.45;;;1.98;;
64686;SDS011;51113;53.646;-113.674;2022-11-20T01:14:13;3.65;;;1.73;;
64686;SDS011;51113;53.646;-113.674;2022-11-20T01:16:45;4.18;;;1.90;;
64686;SDS011;51113;53.646;-113.674;2022-11-20T01:19:19;4.55;;;2.08;;
64686;SDS011;51113;53.646;-113.674;2022-11-20T01:21:51;5.60;;;1.90;;
64686;SDS011;51113;53.646;-113.674;2022-11-20T01:24:21;3.13;;;1.80;;
64686;SDS011;51113;53.646;-113.674;2022-11-20T01:26:50;4.30;;;1.80;;
64686;SDS011;51113;53.646;-113.674;2022-11-20T01:29:21;9.20;;;3.13;;
64686;SDS011;51113;53.646;-113.674;2022-11-20T01:31:51;5.05;;;2.20;;
64686;SDS011;51113;53.646;-113.674;2022-11-20T01:34:21;4.15;;;1.95;;
64686;SDS011;51113;53.646;-113.674;2022-11-20T01:36:51;3.75;;;2.13;;
64686;SDS011;51113;53.646;-113.674;2022-11-20T01:39:24;5.85;;;1.90;;
64686;SDS011;51113;53.646;-113.674;2022-11-20T01:41:54;3.15;;;1.90;;
64686;SDS011;51113;53.646;-113.674;2022-11-20T01:50:05;6.07;;;2.15;;
64686;SDS011;51113;53.646;-113.674;2022-11-20T01:52:46;4.50;;;2.00;;
64686;SDS011;51113;53.646;-113.674;2022-11-20T01:55:37;3.08;;;1.77;;
64686;SDS011;51113;53.646;-113.674;2022-11-20T01:58:10;7.75;;;1.95;;
64686;SDS011;51113;53.646;-113.674;2022-11-20T02:00:40;5.00;;;1.80;;
64686;SDS011;51113;53.646;-113.674;2022-11-20T02:03:10;3.78;;;1.90;;
64686;SDS011;51113;53.646;-113.674;2022-11-20T02:08:24;8.57;;;1.90;;
64686;SDS011;51113;53.646;-113.674;2022-11-20T02:10:53;3.05;;;1.70;;
64686;SDS011;51113;53.646;-113.674;2022-11-20T02:13:22;4.53;;;1.75;;
64686;SDS011;51113;53.646;-113.674;2022-11-20T02:16:14;5.80;;;1.48;;
64686;SDS011;51113;53.646;-113.674;2022-11-20T02:18:48;2.92;;;1.75;;
64686;SDS011;51113;53.646;-113.674;2022-11-20T02:21:34;4.13;;;2.00;;
64686;SDS011;51113;53.646;-113.674;2022-11-20T02:24:15;2.53;;;1.60;;
64686;SDS011;51113;53.646;-113.674;2022-11-20T02:26:49;1.88;;;1.38;;
64686;SDS011;51113;53.646;-113.674;2022-11-20T02:29:23;3.75;;;1.83;;
64686;SDS011;51113;53.646;-113.674;2022-11-20T02:31:58;3.50;;;1.77;;
64686;SDS011;51113;53.646;-113.674;2022-11-20T02:34:30;3.63;;;1.75;;
64686;SDS011;51113;53.646;-113.674;2022-11-20T02:36:58;2.78;;;1.83;;
64686;SDS011;51113;53.646;-113.674;2022-11-20T02:39:28;9.75;;;1.80;;
64686;SDS011;51113;53.646;-113.674;2022-11-20T02:41:57;2.75;;;1.83;;
64686;SDS011;51113;53.646;-113.674;2022-11-20T02:44:26;9.98;;;1.92;;
64686;SDS011;51113;53.646;-113.674;2022-11-20T02:46:56;2.75;;;1.63;;
64686;SDS011;51113;53.646;-113.674;2022-11-20T02:49:26;3.38;;;2.00;;
64686;SDS011;51113;53.646;-113.674;2022-11-20T02:51:55;4.15;;;2.00;;
64686;SDS011;51113;53.646;-113.674;2022-11-20T02:54:24;9.50;;;1.80;;
64686;SDS011;51113;53.646;-113.674;2022-11-20T02:56:53;3.20;;;1.77;;
64686;SDS011;51113;53.646;-113.674;2022-11-20T02:59:22;3.90;;;1.90;;
64686;SDS011;51113;53.646;-113.674;2022-11-20T03:01:52;2.90;;;1.70;;
64686;SDS011;51113;53.646;-113.674;2022-11-20T03:04:21;3.63;;;1.80;;
64686;SDS011;51113;53.646;-113.674;2022-11-20T03:06:51;2.58;;;1.80;;
64686;SDS011;51113;53.646;-113.674;2022-11-20T03:09:20;4.20;;;2.00;;
64686;SDS011;51113;53.646;-113.674;2022-11-20T03:11:49;3.17;;;1.80;;
64686;SDS011;51113;53.646;-113.674;2022-11-20T03:14:19;8.85;;;1.90;;
64686;SDS011;51113;53.646;-113.674;2022-11-20T03:16:48;2.65;;;1.83;;
64686;SDS011;51113;53.646;-113.674;2022-11-20T03:19:16;3.75;;;1.88;;
64686;SDS011;51113;53.646;-113.674;2022-11-20T03:21:46;3.25;;;1.83;;
64686;SDS011;51113;53.646;-113.674;2022-11-20T03:24:15;5.60;;;1.70;;
64686;SDS011;51113;53.646;-113.674;2022-11-20T03:26:44;3.05;;;1.75;;
64686;SDS011;51113;53.646;-113.674;2022-11-20T03:29:16;3.20;;;1.65;;
64686;SDS011;51113;53.646;-113.674;2022-11-20T03:31:45;5.35;;;1.85;;
64686;SDS011;51113;53.646;-113.674;2022-11-20T03:34:15;4.93;;;2.00;;
64686;SDS011;51113;53.646;-113.674;2022-11-20T03:36:44;2.97;;;1.70;;
64686;SDS011;51113;53.646;-113.674;2022-11-20T03:39:13;6.32;;;1.90;;
64686;SDS011;51113;53.646;-113.674;2022-11-20T03:41:43;5.90;;;2.17;;
64686;SDS011;51113;53.646;-113.674;2022-11-20T03:44:13;2.75;;;1.85;;
64686;SDS011;51113;53.646;-113.674;2022-11-20T03:46:41;5.25;;;1.98;;
64686;SDS011;51113;53.646;-113.674;2022-11-20T03:49:10;3.05;;;1.80;;
64686;SDS011;51113;53.646;-113.674;2022-11-20T03:51:39;3.75;;;1.80;;
64686;SDS011;51113;53.646;-113.674;2022-11-20T03:54:08;3.45;;;1.58;;
64686;SDS011;51113;53.646;-113.674;2022-11-20T03:56:38;4.75;;;2.28;;
64686;SDS011;51113;53.646;-113.674;2022-11-20T03:59:09;2.83;;;1.63;;
64686;SDS011;51113;53.646;-113.674;2022-11-20T04:01:38;3.08;;;1.80;;
64686;SDS011;51113;53.646;-113.674;2022-11-20T04:04:14;2.72;;;1.63;;
64686;SDS011;51113;53.646;-113.674;2022-11-20T04:06:43;3.92;;;1.85;;
64686;SDS011;51113;53.646;-113.674;2022-11-20T04:09:13;2.90;;;1.70;;
64686;SDS011;51113;53.646;-113.674;2022-11-20T04:11:43;5.93;;;2.42;;
64686;SDS011;51113;53.646;-113.674;2022-11-20T04:14:13;4.40;;;2.10;;
64686;SDS011;51113;53.646;-113.674;2022-11-20T04:16:43;4.43;;;2.13;;
64686;SDS011;51113;53.646;-113.674;2022-11-20T04:19:15;5.43;;;2.38;;
64686;SDS011;51113;53.646;-113.674;2022-11-20T04:21:45;3.30;;;2.00;;
64686;SDS011;51113;53.646;-113.674;2022-11-20T04:24:14;3.83;;;2.03;;
64686;SDS011;51113;53.646;-113.674;2022-11-20T04:26:42;7.53;;;2.53;;
64686;SDS011;51113;53.646;-113.674;2022-11-20T04:29:13;8.95;;;2.38;;
64686;SDS011;51113;53.646;-113.674;2022-11-20T04:31:44;5.68;;;2.30;;
64686;SDS011;51113;53.646;-113.674;2022-11-20T04:34:13;5.22;;;2.00;;
64686;SDS011;51113;53.646;-113.674;2022-11-20T04:36:42;6.07;;;2.00;;
64686;SDS011;51113;53.646;-113.674;2022-11-20T04:39:11;5.00;;;1.80;;
64686;SDS011;51113;53.646;-113.674;2022-11-20T04:41:42;4.65;;;2.10;;
64686;SDS011;51113;53.646;-113.674;2022-11-20T04:44:11;4.07;;;2.25;;
64686;SDS011;51113;53.646;-113.674;2022-11-20T04:46:41;3.17;;;1.90;;
64686;SDS011;51113;53.646;-113.674;2022-11-20T04:49:10;7.63;;;2.08;;
64686;SDS011;51113;53.646;-113.674;2022-11-20T04:51:39;6.32;;;1.95;;
64686;SDS011;51113;53.646;-113.674;2022-11-20T04:54:08;4.00;;;1.73;;
64686;SDS011;51113;53.646;-113.674;2022-11-20T04:56:37;3.67;;;2.10;;
64686;SDS011;51113;53.646;-113.674;2022-11-20T04:59:07;7.78;;;2.20;;
64686;SDS011;51113;53.646;-113.674;2022-11-20T05:01:35;5.45;;;2.10;;
64686;SDS011;51113;53.646;-113.674;2022-11-20T05:04:04;4.60;;;2.08;;
64686;SDS011;51113;53.646;-113.674;2022-11-20T05:06:34;7.78;;;2.30;;
64686;SDS011;51113;53.646;-113.674;2022-11-20T05:09:03;3.95;;;1.98;;
64686;SDS011;51113;53.646;-113.674;2022-11-20T05:11:32;4.68;;;1.90;;
64686;SDS011;51113;53.646;-113.674;2022-11-20T05:14:01;3.20;;;1.70;;
64686;SDS011;51113;53.646;-113.674;2022-11-20T05:16:30;6.13;;;2.10;;
64686;SDS011;51113;53.646;-113.674;2022-11-20T05:18:59;5.03;;;2.10;;
64686;SDS011;51113;53.646;-113.674;2022-11-20T05:21:29;3.55;;;2.00;;
64686;SDS011;51113;53.646;-113.674;2022-11-20T05:23:59;4.47;;;2.05;;
64686;SDS011;51113;53.646;-113.674;2022-11-20T05:26:28;3.75;;;2.05;;
64686;SDS011;51113;53.646;-113.674;2022-11-20T05:28:57;5.10;;;1.95;;
64686;SDS011;51113;53.646;-113.674;2022-11-20T05:31:27;4.43;;;2.20;;
64686;SDS011;51113;53.646;-113.674;2022-11-20T05:33:56;6.03;;;2.25;;
64686;SDS011;51113;53.646;-113.674;2022-11-20T05:36:25;6.30;;;2.10;;
64686;SDS011;51113;53.646;-113.674;2022-11-20T05:38:54;3.58;;;1.90;;
64686;SDS011;51113;53.646;-113.674;2022-11-20T05:41:27;4.97;;;1.90;;
64686;SDS011;51113;53.646;-113.674;2022-11-20T05:43:56;3.95;;;2.20;;
64686;SDS011;51113;53.646;-113.674;2022-11-20T05:46:26;4.47;;;2.00;;
64686;SDS011;51113;53.646;-113.674;2022-11-20T05:48:55;2.72;;;1.95;;
64686;SDS011;51113;53.646;-113.674;2022-11-20T05:51:25;3.85;;;1.95;;
64686;SDS011;51113;53.646;-113.674;2022-11-20T05:53:57;5.90;;;2.00;;
64686;SDS011;51113;53.646;-113.674;2022-11-20T05:56:26;4.78;;;2.35;;
64686;SDS011;51113;53.646;-113.674;2022-11-20T05:58:55;7.72;;;2.05;;
64686;SDS011;51113;53.646;-113.674;2022-11-20T06:01:25;4.70;;;2.28;;
64686;SDS011;51113;53.646;-113.674;2022-11-20T06:03:54;5.15;;;2.45;;
64686;SDS011;51113;53.646;-113.674;2022-11-20T06:06:23;4.82;;;2.50;;
64686;SDS011;51113;53.646;-113.674;2022-11-20T06:08:54;4.18;;;2.30;;
64686;SDS011;51113;53.646;-113.674;2022-11-20T06:11:23;5.97;;;2.42;;
64686;SDS011;51113;53.646;-113.674;2022-11-20T06:13:52;4.90;;;2.50;;
64686;SDS011;51113;53.646;-113.674;2022-11-20T06:16:22;4.53;;;2.45;;
64686;SDS011;51113;53.646;-113.674;2022-11-20T06:18:51;7.05;;;2.22;;
64686;SDS011;51113;53.646;-113.674;2022-11-20T06:21:21;4.07;;;2.33;;
64686;SDS011;51113;53.646;-113.674;2022-11-20T06:23:50;3.85;;;2.22;;
64686;SDS011;51113;53.646;-113.674;2022-11-20T06:26:24;3.25;;;1.80;;
64686;SDS011;51113;53.646;-113.674;2022-11-20T06:28:54;3.63;;;2.10;;
64686;SDS011;51113;53.646;-113.674;2022-11-20T06:31:26;4.07;;;2.53;;
64686;SDS011;51113;53.646;-113.674;2022-11-20T06:33:55;3.85;;;2.15;;
64686;SDS011;51113;53.646;-113.674;2022-11-20T06:36:24;3.72;;;2.10;;
64686;SDS011;51113;53.646;-113.674;2022-11-20T06:38:52;4.00;;;2.15;;
64686;SDS011;51113;53.646;-113.674;2022-11-20T06:41:21;3.63;;;2.10;;
64686;SDS011;51113;53.646;-113.674;2022-11-20T06:43:51;4.57;;;2.30;;
64686;SDS011;51113;53.646;-113.674;2022-11-20T06:46:20;4.57;;;2.38;;
64686;SDS011;51113;53.646;-113.674;2022-11-20T06:48:49;7.07;;;2.55;;
64686;SDS011;51113;53.646;-113.674;2022-11-20T06:51:19;5.78;;;2.50;;
64686;SDS011;51113;53.646;-113.674;2022-11-20T06:53:49;6.00;;;2.63;;
64686;SDS011;51113;53.646;-113.674;2022-11-20T06:56:17;4.45;;;2.53;;
64686;SDS011;51113;53.646;-113.674;2022-11-20T06:58:46;4.35;;;2.50;;
64686;SDS011;51113;53.646;-113.674;2022-11-20T07:01:15;4.72;;;2.50;;
64686;SDS011;51113;53.646;-113.674;2022-11-20T07:03:44;5.38;;;2.80;;
64686;SDS011;51113;53.646;-113.674;2022-11-20T07:06:19;4.28;;;2.55;;
64686;SDS011;51113;53.646;-113.674;2022-11-20T07:08:49;5.50;;;2.95;;
64686;SDS011;51113;53.646;-113.674;2022-11-20T07:11:21;6.22;;;3.17;;
64686;SDS011;51113;53.646;-113.674;2022-11-20T07:13:50;8.57;;;3.05;;
64686;SDS011;51113;53.646;-113.674;2022-11-20T07:16:19;6.32;;;2.97;;
64686;SDS011;51113;53.646;-113.674;2022-11-20T07:18:48;7.65;;;3.17;;
64686;SDS011;51113;53.646;-113.674;2022-11-20T07:21:17;6.53;;;3.47;;
64686;SDS011;51113;53.646;-113.674;2022-11-20T07:23:46;6.32;;;3.08;;
64686;SDS011;51113;53.646;-113.674;2022-11-20T07:26:14;8.30;;;3.45;;
64686;SDS011;51113;53.646;-113.674;2022-11-20T07:28:43;10.70;;;3.08;;
64686;SDS011;51113;53.646;-113.674;2022-11-20T07:31:13;7.40;;;3.10;;
64686;SDS011;51113;53.646;-113.674;2022-11-20T07:33:45;9.48;;;3.65;;
64686;SDS011;51113;53.646;-113.674;2022-11-20T07:36:14;7.65;;;3.50;;
64686;SDS011;51113;53.646;-113.674;2022-11-20T07:38:43;5.03;;;2.80;;
64686;SDS011;51113;53.646;-113.674;2022-11-20T07:41:13;7.93;;;3.55;;
64686;SDS011;51113;53.646;-113.674;2022-11-20T07:43:42;8.15;;;3.22;;
64686;SDS011;51113;53.646;-113.674;2022-11-20T07:46:10;5.35;;;2.95;;
64686;SDS011;51113;53.646;-113.674;2022-11-20T07:48:39;9.20;;;3.35;;
64686;SDS011;51113;53.646;-113.674;2022-11-20T07:51:08;5.88;;;2.95;;
64686;SDS011;51113;53.646;-113.674;2022-11-20T07:53:37;9.98;;;2.85;;
64686;SDS011;51113;53.646;-113.674;2022-11-20T07:56:05;4.88;;;2.67;;
64686;SDS011;51113;53.646;-113.674;2022-11-20T07:58:34;8.82;;;2.75;;
64686;SDS011;51113;53.646;-113.674;2022-11-20T08:01:06;5.10;;;2.47;;
64686;SDS011;51113;53.646;-113.674;2022-11-20T08:03:35;8.57;;;2.42;;
64686;SDS011;51113;53.646;-113.674;2022-11-20T08:06:07;4.05;;;2.30;;
64686;SDS011;51113;53.646;-113.674;2022-11-20T08:08:37;4.28;;;2.40;;
64686;SDS011;51113;53.646;-113.674;2022-11-20T08:11:08;5.80;;;2.20;;
64686;SDS011;51113;53.646;-113.674;2022-11-20T08:13:55;6.55;;;2.38;;
64686;SDS011;51113;53.646;-113.674;2022-11-20T08:16:44;8.10;;;2.40;;
64686;SDS011;51113;53.646;-113.674;2022-11-20T08:19:17;4.43;;;2.08;;
64686;SDS011;51113;53.646;-113.674;2022-11-20T08:21:47;3.22;;;1.98;;
64686;SDS011;51113;53.646;-113.674;2022-11-20T08:24:16;4.13;;;1.98;;
64686;SDS011;51113;53.646;-113.674;2022-11-20T08:26:45;6.30;;;2.10;;
64686;SDS011;51113;53.646;-113.674;2022-11-20T08:29:13;3.97;;;1.95;;
64686;SDS011;51113;53.646;-113.674;2022-11-20T08:31:42;4.15;;;2.25;;
64686;SDS011;51113;53.646;-113.674;2022-11-20T08:34:10;4.10;;;2.10;;
64686;SDS011;51113;53.646;-113.674;2022-11-20T08:36:44;6.28;;;2.08;;
64686;SDS011;51113;53.646;-113.674;2022-11-20T08:39:13;5.43;;;2.25;;
64686;SDS011;51113;53.646;-113.674;2022-11-20T08:41:42;4.57;;;1.95;;
64686;SDS011;51113;53.646;-113.674;2022-11-20T08:44:11;4.25;;;1.80;;
64686;SDS011;51113;53.646;-113.674;2022-11-20T08:46:41;4.93;;;2.22;;
64686;SDS011;51113;53.646;-113.674;2022-11-20T08:49:11;4.85;;;2.20;;
64686;SDS011;51113;53.646;-113.674;2022-11-20T08:51:42;3.35;;;2.00;;
64686;SDS011;51113;53.646;-113.674;2022-11-20T08:54:11;2.78;;;1.63;;
64686;SDS011;51113;53.646;-113.674;2022-11-20T08:56:40;2.53;;;1.70;;
64686;SDS011;51113;53.646;-113.674;2022-11-20T08:59:09;5.47;;;2.17;;
64686;SDS011;51113;53.646;-113.674;2022-11-20T09:01:58;4.90;;;1.92;;
64686;SDS011;51113;53.646;-113.674;2022-11-20T09:04:27;6.30;;;2.40;;
64686;SDS011;51113;53.646;-113.674;2022-11-20T09:06:56;6.78;;;2.20;;
64686;SDS011;51113;53.646;-113.674;2022-11-20T09:09:24;3.25;;;1.95;;
64686;SDS011;51113;53.646;-113.674;2022-11-20T09:11:53;4.57;;;2.15;;
64686;SDS011;51113;53.646;-113.674;2022-11-20T09:14:22;2.92;;;1.70;;
64686;SDS011;51113;53.646;-113.674;2022-11-20T09:16:57;4.00;;;2.00;;
64686;SDS011;51113;53.646;-113.674;2022-11-20T09:19:26;3.47;;;1.77;;
64686;SDS011;51113;53.646;-113.674;2022-11-20T09:22:02;3.70;;;2.10;;
64686;SDS011;51113;53.646;-113.674;2022-11-20T09:24:32;4.30;;;1.80;;
64686;SDS011;51113;53.646;-113.674;2022-11-20T09:27:04;6.93;;;2.08;;
64686;SDS011;51113;53.646;-113.674;2022-11-20T09:29:33;3.73;;;1.90;;
64686;SDS011;51113;53.646;-113.674;2022-11-20T09:32:03;5.13;;;2.08;;
64686;SDS011;51113;53.646;-113.674;2022-11-20T09:34:32;3.95;;;2.08;;
64686;SDS011;51113;53.646;-113.674;2022-11-20T09:37:01;4.20;;;2.17;;
64686;SDS011;51113;53.646;-113.674;2022-11-20T09:39:33;4.25;;;1.83;;
64686;SDS011;51113;53.646;-113.674;2022-11-20T09:56:11;3.28;;;1.80;;
64686;SDS011;51113;53.646;-113.674;2022-11-20T09:58:57;5.65;;;1.98;;
64686;SDS011;51113;53.646;-113.674;2022-11-20T10:01:31;4.72;;;1.92;;
64686;SDS011;51113;53.646;-113.674;2022-11-20T10:04:04;4.53;;;2.20;;
64686;SDS011;51113;53.646;-113.674;2022-11-20T10:09:49;3.57;;;1.73;;
64686;SDS011;51113;53.646;-113.674;2022-11-20T10:15:33;7.35;;;1.92;;
64686;SDS011;51113;53.646;-113.674;2022-11-20T10:18:21;3.17;;;1.88;;
64686;SDS011;51113;53.646;-113.674;2022-11-20T10:29:47;3.28;;;1.80;;
64686;SDS011;51113;53.646;-113.674;2022-11-20T10:32:29;5.38;;;1.80;;
64686;SDS011;51113;53.646;-113.674;2022-11-20T10:37:52;2.40;;;1.50;;
64686;SDS011;51113;53.646;-113.674;2022-11-20T10:43:11;7.50;;;1.98;;
64686;SDS011;51113;53.646;-113.674;2022-11-20T10:45:56;5.00;;;1.73;;
64686;SDS011;51113;53.646;-113.674;2022-11-20T10:48:31;3.15;;;1.90;;
64686;SDS011;51113;53.646;-113.674;2022-11-20T10:56:39;3.08;;;1.70;;
64686;SDS011;51113;53.646;-113.674;2022-11-20T11:01:56;3.05;;;1.80;;
64686;SDS011;51113;53.646;-113.674;2022-11-20T11:04:40;5.40;;;1.70;;
64686;SDS011;51113;53.646;-113.674;2022-11-20T11:07:15;4.40;;;1.67;;
64686;SDS011;51113;53.646;-113.674;2022-11-20T11:09:49;4.57;;;1.92;;
64686;SDS011;51113;53.646;-113.674;2022-11-20T11:12:23;4.90;;;1.83;;
64686;SDS011;51113;53.646;-113.674;2022-11-20T11:14:54;6.32;;;1.80;;
64686;SDS011;51113;53.646;-113.674;2022-11-20T11:17:26;5.90;;;1.90;;
64686;SDS011;51113;53.646;-113.674;2022-11-20T11:22:48;2.83;;;1.70;;
64686;SDS011;51113;53.646;-113.674;2022-11-20T11:25:26;4.00;;;1.83;;
64686;SDS011;51113;53.646;-113.674;2022-11-20T11:27:58;3.90;;;1.67;;
64686;SDS011;51113;53.646;-113.674;2022-11-20T11:30:29;4.25;;;1.77;;
64686;SDS011;51113;53.646;-113.674;2022-11-20T11:33:17;6.43;;;1.80;;
64686;SDS011;51113;53.646;-113.674;2022-11-20T11:35:49;4.45;;;1.92;;
64686;SDS011;51113;53.646;-113.674;2022-11-20T11:40:52;3.85;;;1.67;;
64686;SDS011;51113;53.646;-113.674;2022-11-20T11:43:24;4.38;;;1.70;;
64686;SDS011;51113;53.646;-113.674;2022-11-20T11:46:34;2.63;;;1.60;;
64686;SDS011;51113;53.646;-113.674;2022-11-20T11:54:24;2.53;;;1.48;;
64686;SDS011;51113;53.646;-113.674;2022-11-20T11:58:02;3.38;;;1.60;;
64686;SDS011;51113;53.646;-113.674;2022-11-20T12:00:10;4.95;;;1.80;;
64686;SDS011;51113;53.646;-113.674;2022-11-20T12:05:23;2.20;;;1.40;;
64686;SDS011;51113;53.646;-113.674;2022-11-20T12:08:18;2.85;;;1.50;;
64686;SDS011;51113;53.646;-113.674;2022-11-20T12:14:09;6.18;;;1.88;;
64686;SDS011;51113;53.646;-113.674;2022-11-20T12:16:38;2.03;;;1.38;;
64686;SDS011;51113;53.646;-113.674;2022-11-20T12:19:11;5.07;;;1.83;;
64686;SDS011;51113;53.646;-113.674;2022-11-20T12:21:50;3.30;;;1.70;;
64686;SDS011;51113;53.646;-113.674;2022-11-20T12:29:58;4.53;;;1.80;;
64686;SDS011;51113;53.646;-113.674;2022-11-20T12:38:37;5.57;;;1.60;;
64686;SDS011;51113;53.646;-113.674;2022-11-20T12:41:12;2.67;;;1.52;;
64686;SDS011;51113;53.646;-113.674;2022-11-20T12:53:00;4.03;;;1.80;;
64686;SDS011;51113;53.646;-113.674;2022-11-20T12:58:33;3.95;;;1.70;;
64686;SDS011;51113;53.646;-113.674;2022-11-20T13:04:34;2.88;;;1.70;;
64686;SDS011;51113;53.646;-113.674;2022-11-20T13:07:13;4.65;;;1.40;;
64686;SDS011;51113;53.646;-113.674;2022-11-20T13:09:44;3.20;;;1.52;;
64686;SDS011;51113;53.646;-113.674;2022-11-20T13:15:08;4.80;;;1.67;;
64686;SDS011;51113;53.646;-113.674;2022-11-20T13:17:56;4.32;;;1.83;;
64686;SDS011;51113;53.646;-113.674;2022-11-20T13:20:27;8.50;;;1.92;;
64686;SDS011;51113;53.646;-113.674;2022-11-20T13:22:58;5.82;;;1.73;;
64686;SDS011;51113;53.646;-113.674;2022-11-20T13:25:28;4.22;;;1.55;;
64686;SDS011;51113;53.646;-113.674;2022-11-20T13:28:03;4.22;;;1.58;;
64686;SDS011;51113;53.646;-113.674;2022-11-20T13:30:33;3.17;;;1.60;;
64686;SDS011;51113;53.646;-113.674;2022-11-20T13:33:07;2.65;;;1.48;;
64686;SDS011;51113;53.646;-113.674;2022-11-20T13:35:41;3.22;;;1.65;;
64686;SDS011;51113;53.646;-113.674;2022-11-20T13:38:11;4.95;;;1.60;;
64686;SDS011;51113;53.646;-113.674;2022-11-20T13:40:57;5.50;;;1.85;;
64686;SDS011;51113;53.646;-113.674;2022-11-20T13:43:42;4.38;;;1.90;;
64686;SDS011;51113;53.646;-113.674;2022-11-20T13:46:11;4.55;;;2.08;;
64686;SDS011;51113;53.646;-113.674;2022-11-20T13:51:37;6.70;;;2.30;;
64686;SDS011;51113;53.646;-113.674;2022-11-20T13:57:27;4.43;;;2.28;;
64686;SDS011;51113;53.646;-113.674;2022-11-20T14:02:44;5.95;;;2.72;;
64686;SDS011;51113;53.646;-113.674;2022-11-20T14:05:36;3.50;;;2.00;;
64686;SDS011;51113;53.646;-113.674;2022-11-20T14:08:23;5.70;;;2.28;;
64686;SDS011;51113;53.646;-113.674;2022-11-20T14:11:06;7.47;;;2.20;;
64686;SDS011;51113;53.646;-113.674;2022-11-20T14:16:27;4.80;;;2.42;;
64686;SDS011;51113;53.646;-113.674;2022-11-20T14:19:08;5.95;;;2.72;;
64686;SDS011;51113;53.646;-113.674;2022-11-20T14:22:09;5.85;;;2.65;;
64686;SDS011;51113;53.646;-113.674;2022-11-20T14:24:49;3.75;;;2.20;;
64686;SDS011;51113;53.646;-113.674;2022-11-20T14:27:36;3.45;;;2.10;;
64686;SDS011;51113;53.646;-113.674;2022-11-20T14:30:16;4.78;;;2.20;;
64686;SDS011;51113;53.646;-113.674;2022-11-20T14:32:47;4.20;;;2.33;;
64686;SDS011;51113;53.646;-113.674;2022-11-20T14:37:55;6.05;;;2.42;;
64686;SDS011;51113;53.646;-113.674;2022-11-20T14:40:25;4.50;;;2.13;;
64686;SDS011;51113;53.646;-113.674;2022-11-20T14:42:57;5.63;;;2.55;;
64686;SDS011;51113;53.646;-113.674;2022-11-20T14:45:27;4.50;;;2.30;;
64686;SDS011;51113;53.646;-113.674;2022-11-20T14:47:56;4.85;;;2.83;;
64686;SDS011;51113;53.646;-113.674;2022-11-20T14:50:27;4.47;;;2.40;;
64686;SDS011;51113;53.646;-113.674;2022-11-20T14:53:00;3.35;;;2.10;;
64686;SDS011;51113;53.646;-113.674;2022-11-20T14:55:33;5.88;;;2.47;;
64686;SDS011;51113;53.646;-113.674;2022-11-20T14:58:19;4.70;;;2.17;;
64686;SDS011;51113;53.646;-113.674;2022-11-20T15:00:55;4.40;;;2.33;;
64686;SDS011;51113;53.646;-113.674;2022-11-20T15:03:38;7.18;;;2.50;;
64686;SDS011;51113;53.646;-113.674;2022-11-20T15:06:10;5.55;;;2.80;;
64686;SDS011;51113;53.646;-113.674;2022-11-20T15:08:50;3.63;;;2.22;;
64686;SDS011;51113;53.646;-113.674;2022-11-20T15:11:20;7.85;;;2.70;;
64686;SDS011;51113;53.646;-113.674;2022-11-20T15:14:02;7.07;;;2.60;;
64686;SDS011;51113;53.646;-113.674;2022-11-20T15:19:01;5.80;;;2.80;;
64686;SDS011;51113;53.646;-113.674;2022-11-20T15:21:31;4.95;;;2.70;;
64686;SDS011;51113;53.646;-113.674;2022-11-20T15:24:00;4.45;;;2.40;;
64686;SDS011;51113;53.646;-113.674;2022-11-20T15:26:28;12.60;;;2.60;;
64686;SDS011;51113;53.646;-113.674;2022-11-20T15:28:58;6.45;;;2.72;;
64686;SDS011;51113;53.646;-113.674;2022-11-20T15:31:26;5.80;;;2.28;;
64686;SDS011;51113;53.646;-113.674;2022-11-20T15:33:55;3.83;;;2.20;;
64686;SDS011;51113;53.646;-113.674;2022-11-20T15:36:24;6.05;;;2.50;;
64686;SDS011;51113;53.646;-113.674;2022-11-20T15:38:53;4.50;;;2.53;;
64686;SDS011;51113;53.646;-113.674;2022-11-20T15:41:22;8.07;;;2.55;;
64686;SDS011;51113;53.646;-113.674;2022-11-20T15:43:51;7.53;;;2.90;;
64686;SDS011;51113;53.646;-113.674;2022-11-20T15:46:23;4.30;;;2.25;;
64686;SDS011;51113;53.646;-113.674;2022-11-20T15:48:55;6.45;;;2.75;;
64686;SDS011;51113;53.646;-113.674;2022-11-20T15:51:26;4.57;;;2.80;;
64686;SDS011;51113;53.646;-113.674;2022-11-20T15:53:57;4.47;;;2.27;;
64686;SDS011;51113;53.646;-113.674;2022-11-20T15:56:26;7.95;;;2.33;;
64686;SDS011;51113;53.646;-113.674;2022-11-20T15:58:55;6.53;;;2.55;;
64686;SDS011;51113;53.646;-113.674;2022-11-20T16:01:27;7.20;;;2.75;;
64686;SDS011;51113;53.646;-113.674;2022-11-20T16:03:59;9.10;;;3.50;;
64686;SDS011;51113;53.646;-113.674;2022-11-20T16:06:28;4.95;;;2.50;;
64686;SDS011;51113;53.646;-113.674;2022-11-20T16:08:57;5.20;;;2.30;;
64686;SDS011;51113;53.646;-113.674;2022-11-20T16:11:25;7.55;;;2.60;;
64686;SDS011;51113;53.646;-113.674;2022-11-20T16:13:54;3.55;;;2.20;;
64686;SDS011;51113;53.646;-113.674;2022-11-20T16:16:41;4.78;;;2.22;;
64686;SDS011;51113;53.646;-113.674;2022-11-20T16:19:11;3.97;;;2.45;;
64686;SDS011;51113;53.646;-113.674;2022-11-20T16:21:40;5.03;;;2.55;;
64686;SDS011;51113;53.646;-113.674;2022-11-20T16:24:10;6.75;;;2.67;;
64686;SDS011;51113;53.646;-113.674;2022-11-20T16:26:40;3.78;;;2.20;;
64686;SDS011;51113;53.646;-113.674;2022-11-20T16:29:09;6.00;;;2.42;;
64686;SDS011;51113;53.646;-113.674;2022-11-20T16:31:39;4.20;;;2.60;;